Airfield :
LOGIN :

Register | Disclaimer

   EN    FR    IT 

 










Legend :    VFR   Marginal VFR   IFR   Intensive IFR   Very Intensive IFR
Visi :
Ceiling :
>= 8 km
>= 3000ft
5 to 8 km
1000 to 3000 ft
1500m to 5 km
500 to 1000 ft
800 to 1500m
200 to 500 ft
< 800m
< 200 ft
Symbols :   Thunderstorms  Fog  Heavy snow  Heavy precipitations  Wind > 20 kt
SIGMETs :     Misc.  Thunderstorms  Icing  Turbulence  Mountain Waves  Volcanic Ashes






- Airport Elevation : 352 ft
- IATA code : KSD


ESOK - Karlstad

CURRENT METAR :
  • 180050Z AUTO 04004KT 0150 R03/0600N R21/0600N FG VV001 03/03 Q1018

EXPIRED METARs :
  • 180020Z AUTO 05003KT 0200 R03/0700N R21/0700N FG VV002 03/03 Q1018
  • 172350Z AUTO 04004KT 0250 R03/0800N R21/1300D FG VV002 03/03 Q1018
  • 172320Z AUTO 04003KT 0400 R03/1100U R21/1300U FG VV001 03/03 Q1018
  • 172250Z AUTO 06003KT 0400 R03/P1500D R21/1200D FG VV002 03/03 Q1018
  • 172220Z AUTO 36005KT 4900 BR OVC001/// 03/03 Q1018

Expired Forecast.



MET'MAP, your aeronautical weather chart ! - Copyright ORBIFLY December 2007 - Disclaimer

ORBIFLY MET'MAP TEAM :

Programming & Development : Alexandra Zaïnal
Concept & Development : Baudouin d'Aumeries
Co-Development & Prog : Marc-Olivier Méhu
Technical & hardware support : Manuel Goepfert

Contact : metmap@orbifly.com




SOURCES & CREDITS :

   NOAA